createdAt,value
2023-03-03T00:01:25.370Z,32.97
2023-03-03T00:04:26.877Z,30.48
2023-03-03T00:07:28.417Z,30.98
2023-03-03T00:10:29.969Z,33.28
2023-03-03T00:13:32.109Z,35.90
2023-03-03T00:16:40.665Z,37.75
2023-03-03T00:19:42.285Z,33.17
2023-03-03T00:22:43.905Z,31.98
2023-03-03T00:25:45.837Z,37.10
2023-03-03T00:28:48.713Z,31.03
2023-03-03T00:31:50.210Z,35.10
2023-03-03T00:34:53.130Z,31.70
2023-03-03T00:37:56.493Z,35.45
2023-03-03T00:40:57.975Z,27.48
2023-03-03T00:43:59.487Z,31.35
2023-03-03T00:47:11.252Z,31.08
2023-03-03T00:50:12.558Z,38.08
2023-03-03T00:53:17.218Z,37.72
2023-03-03T00:56:18.737Z,31.08
2023-03-03T00:59:20.303Z,30.08
2023-03-03T01:02:21.867Z,29.80
2023-03-03T01:05:23.376Z,28.25
2023-03-03T01:08:24.874Z,30.60
2023-03-03T01:11:26.666Z,30.13
2023-03-03T01:14:28.220Z,25.75
2023-03-03T01:17:29.749Z,30.73
2023-03-03T01:20:31.225Z,30.98
2023-03-03T01:23:32.836Z,30.60
2023-03-03T01:26:34.326Z,44.40
2023-03-03T01:29:35.830Z,30.52
2023-03-03T01:32:37.369Z,29.15
2023-03-03T01:35:43.863Z,25.80
2023-03-03T01:38:45.400Z,38.70
2023-03-03T01:41:46.928Z,33.00
2023-03-03T01:44:48.447Z,32.05
2023-03-03T01:48:03.292Z,28.30
2023-03-03T01:51:26.297Z,28.20
2023-03-03T01:54:34.202Z,28.90
2023-03-03T01:57:38.272Z,29.35
2023-03-03T02:00:41.360Z,35.38
2023-03-03T02:03:43.656Z,29.02
2023-03-03T02:06:47.988Z,30.17
2023-03-03T02:09:57.237Z,35.72
2023-03-03T02:12:59.914Z,33.28
2023-03-03T02:16:01.424Z,33.70
2023-03-03T02:19:04.834Z,26.23
2023-03-03T02:22:06.321Z,29.67
2023-03-03T02:25:08.543Z,33.17
2023-03-03T02:28:10.113Z,31.48
2023-03-03T02:31:15.585Z,29.98
2023-03-03T02:34:17.712Z,32.38
2023-03-03T02:37:19.398Z,32.28
2023-03-03T02:40:20.922Z,30.45
2023-03-03T02:43:22.670Z,31.25
2023-03-03T02:46:24.208Z,30.30
2023-03-03T02:49:32.090Z,29.50
2023-03-03T02:52:33.565Z,30.67
2023-03-03T02:55:35.067Z,27.40
2023-03-03T02:58:37.098Z,29.50
2023-03-03T03:01:38.704Z,36.65
2023-03-03T03:04:40.291Z,29.98
2023-03-03T03:07:41.873Z,38.72
2023-03-03T03:10:43.411Z,213.65
2023-03-03T03:13:45.088Z,214.82
2023-03-03T03:16:46.621Z,200.88
2023-03-03T03:19:48.144Z,101.35
2023-03-03T03:22:49.680Z,121.57
2023-03-03T03:25:51.169Z,90.07
2023-03-03T03:28:52.767Z,40.38
2023-03-03T03:31:54.309Z,50.95
2023-03-03T03:34:55.814Z,47.75
2023-03-03T03:37:57.349Z,40.72
2023-03-03T03:40:58.905Z,30.95
2023-03-03T03:44:00.373Z,32.28
2023-03-03T03:47:01.893Z,39.90
2023-03-03T03:50:03.585Z,29.40
2023-03-03T03:53:05.955Z,30.48
2023-03-03T03:56:07.750Z,47.50
2023-03-03T03:59:09.243Z,39.67
2023-03-03T04:02:10.908Z,83.63
2023-03-03T04:05:12.514Z,72.95
2023-03-03T04:08:14.000Z,96.88
2023-03-03T04:11:15.518Z,43.05
2023-03-03T04:14:17.019Z,36.78
2023-03-03T04:17:22.306Z,56.78
2023-03-03T04:20:23.787Z,38.50
2023-03-03T04:23:25.263Z,37.08
2023-03-03T04:26:26.890Z,31.02
2023-03-03T04:29:28.368Z,30.40
2023-03-03T04:32:30.462Z,31.35
2023-03-03T04:35:32.008Z,40.83
2023-03-03T04:38:33.510Z,36.70
2023-03-03T04:41:35.324Z,32.80
2023-03-03T04:44:36.930Z,31.60
2023-03-03T04:47:38.411Z,34.72
2023-03-03T04:50:39.889Z,31.95
2023-03-03T04:53:41.406Z,37.60
2023-03-03T04:56:42.955Z,33.58
2023-03-03T04:59:44.586Z,34.67
2023-03-03T05:02:47.472Z,51.40
2023-03-03T05:05:48.965Z,75.00
2023-03-03T05:08:50.486Z,71.65
2023-03-03T05:11:51.993Z,43.95
2023-03-03T05:14:53.465Z,39.08
2023-03-03T05:17:56.454Z,33.88
2023-03-03T05:20:58.178Z,44.70
2023-03-03T05:23:59.662Z,42.42
2023-03-03T05:27:01.129Z,47.38
2023-03-03T05:30:02.926Z,37.78
2023-03-03T05:33:05.048Z,41.90
2023-03-03T05:36:06.901Z,34.25
2023-03-03T05:39:08.427Z,30.23
2023-03-03T05:42:11.309Z,38.78
2023-03-03T05:45:13.009Z,34.58
2023-03-03T05:48:14.538Z,37.40
2023-03-03T05:51:16.011Z,41.55
2023-03-03T05:54:17.533Z,38.38
2023-03-03T05:57:19.055Z,39.85
2023-03-03T06:00:20.859Z,40.08
2023-03-03T06:03:22.496Z,42.60
2023-03-03T06:06:24.022Z,40.95
2023-03-03T06:09:26.308Z,41.50
2023-03-03T06:12:27.850Z,41.47
2023-03-03T06:15:29.398Z,45.72
2023-03-03T06:18:30.990Z,35.55
2023-03-03T06:21:32.489Z,32.55
2023-03-03T06:24:34.301Z,49.58
2023-03-03T06:27:35.795Z,62.80
2023-03-03T06:30:37.324Z,42.75
2023-03-03T06:33:38.999Z,38.90
2023-03-03T06:36:40.471Z,35.75
2023-03-03T06:39:41.984Z,37.55
2023-03-03T06:42:43.468Z,32.78
2023-03-03T06:45:45.616Z,52.30
2023-03-03T06:48:47.178Z,41.47
2023-03-03T06:51:48.702Z,42.97
2023-03-03T06:54:51.078Z,43.95
2023-03-03T06:57:55.791Z,82.47
2023-03-03T07:00:58.161Z,118.35
2023-03-03T07:03:59.712Z,84.85
2023-03-03T07:07:10.700Z,135.63
2023-03-03T07:10:27.886Z,106.15
2023-03-03T07:13:29.853Z,75.13
2023-03-03T07:16:31.410Z,51.45
2023-03-03T07:19:36.050Z,57.15
2023-03-03T07:22:37.518Z,50.70
2023-03-03T07:25:39.063Z,61.80
2023-03-03T07:29:14.383Z,57.78
2023-03-03T07:32:18.841Z,57.30
2023-03-03T07:35:41.026Z,66.38
2023-03-03T07:38:42.736Z,69.40
2023-03-03T07:41:44.225Z,58.28
2023-03-03T07:44:48.775Z,70.30
2023-03-03T07:47:50.257Z,65.35
2023-03-03T07:50:51.969Z,67.80
2023-03-03T07:53:55.272Z,40.88
2023-03-03T07:56:59.201Z,55.85
2023-03-03T08:00:19.128Z,57.03
2023-03-03T08:03:20.838Z,52.95
2023-03-03T08:06:47.193Z,46.20
2023-03-03T08:09:56.751Z,39.47
2023-03-03T08:12:58.744Z,42.88
2023-03-03T08:16:09.561Z,42.95
2023-03-03T08:19:11.316Z,42.72
2023-03-03T08:22:40.474Z,69.38
2023-03-03T08:25:42.460Z,57.80
2023-03-03T08:28:43.965Z,47.45
2023-03-03T08:31:45.488Z,49.28
2023-03-03T08:34:46.997Z,44.40
2023-03-03T08:37:48.466Z,38.05
2023-03-03T08:40:50.136Z,41.75
2023-03-03T08:43:51.797Z,36.10
2023-03-03T08:46:53.257Z,41.63
2023-03-03T08:49:54.875Z,48.22
2023-03-03T08:52:56.505Z,44.13
2023-03-03T08:55:58.219Z,42.17
2023-03-03T08:59:03.320Z,38.42
2023-03-03T09:02:06.309Z,42.85
2023-03-03T09:05:08.341Z,39.75
2023-03-03T09:08:10.724Z,40.03
2023-03-03T09:11:13.015Z,38.00
2023-03-03T09:14:15.913Z,36.10
2023-03-03T09:17:28.644Z,42.30
2023-03-03T09:20:43.954Z,32.10
2023-03-03T09:23:53.291Z,36.00
2023-03-03T09:26:55.125Z,39.00
2023-03-03T09:30:25.908Z,42.03
2023-03-03T09:33:33.366Z,43.15
2023-03-03T09:36:38.577Z,41.58
2023-03-03T09:39:40.068Z,46.25
2023-03-03T09:43:04.675Z,50.78
2023-03-03T09:46:24.453Z,48.08
2023-03-03T09:49:45.301Z,41.83
2023-03-03T09:52:50.699Z,46.15
2023-03-03T09:56:13.780Z,39.38
2023-03-03T09:59:39.744Z,37.20
2023-03-03T10:02:47.366Z,42.90
2023-03-03T10:06:11.820Z,38.80
2023-03-03T10:09:28.473Z,42.30
2023-03-03T10:12:36.805Z,42.15
2023-03-03T10:15:47.780Z,39.58
2023-03-03T10:19:02.312Z,41.22
2023-03-03T10:22:09.720Z,45.55
2023-03-03T10:25:22.544Z,40.55
2023-03-03T10:31:54.948Z,44.70
2023-03-03T10:35:08.533Z,45.70
2023-03-03T10:38:31.182Z,40.95
2023-03-03T10:41:44.239Z,45.63
2023-03-03T10:44:51.768Z,42.88
2023-03-03T10:48:03.290Z,52.92
2023-03-03T10:51:17.888Z,45.00
2023-03-03T10:54:43.407Z,50.33
2023-03-03T10:58:12.825Z,48.10
2023-03-03T11:01:39.318Z,45.33
2023-03-03T11:04:52.682Z,47.00
2023-03-03T11:08:26.010Z,41.80
2023-03-03T11:11:42.033Z,45.00
2023-03-03T11:14:49.130Z,47.72
2023-03-03T11:18:09.436Z,38.33
2023-03-03T11:21:22.635Z,46.92
2023-03-03T11:24:31.168Z,46.78
2023-03-03T11:27:55.578Z,41.45
2023-03-03T11:31:14.187Z,44.80
2023-03-03T11:34:15.611Z,44.60
2023-03-03T11:37:20.156Z,44.67
2023-03-03T11:40:36.317Z,43.22
2023-03-03T11:43:46.765Z,40.90
2023-03-03T11:47:39.911Z,42.42
2023-03-03T11:54:08.778Z,48.67
2023-03-03T11:57:27.209Z,47.78
2023-03-03T12:00:34.683Z,47.30
2023-03-03T12:03:45.490Z,57.20
2023-03-03T12:07:18.412Z,52.95
2023-03-03T12:10:53.071Z,46.28
2023-03-03T12:14:16.984Z,47.10
2023-03-03T12:17:56.133Z,48.13
2023-03-03T12:21:16.399Z,45.85
2023-03-03T12:24:24.460Z,50.03
2023-03-03T12:27:44.685Z,57.95
2023-03-03T12:31:18.218Z,49.65
2023-03-03T12:34:44.269Z,51.17
2023-03-03T12:38:23.172Z,50.75
2023-03-03T12:41:33.711Z,57.55
2023-03-03T12:44:42.744Z,54.80
2023-03-03T12:47:49.180Z,52.35
2023-03-03T12:51:25.554Z,53.60
2023-03-03T12:54:36.986Z,59.17
2023-03-03T12:58:12.717Z,54.83
2023-03-03T13:01:33.805Z,54.00
2023-03-03T13:04:39.253Z,57.63
2023-03-03T13:07:55.358Z,56.33
2023-03-03T13:11:01.849Z,62.53
2023-03-03T13:14:41.148Z,48.83
2023-03-03T13:17:58.457Z,54.67
2023-03-03T13:21:01.824Z,57.53
2023-03-03T13:24:16.089Z,52.00
2023-03-03T13:27:19.163Z,53.70
2023-03-03T13:30:23.283Z,56.03
2023-03-03T13:33:29.237Z,52.55
2023-03-03T13:36:35.327Z,51.15
2023-03-03T13:39:45.214Z,53.13
2023-03-03T13:42:55.697Z,55.67
2023-03-03T13:45:59.754Z,52.45
2023-03-03T13:49:17.057Z,52.20
2023-03-03T13:52:22.953Z,54.60
2023-03-03T13:55:41.831Z,65.32
2023-03-03T13:58:46.280Z,51.67
2023-03-03T14:01:55.794Z,59.30
2023-03-03T14:05:37.124Z,49.88
2023-03-03T14:09:00.427Z,59.50
2023-03-03T14:12:29.608Z,59.40
2023-03-03T14:15:45.062Z,52.40
2023-03-03T14:18:54.562Z,61.97
2023-03-03T14:22:16.236Z,52.60
2023-03-03T14:25:18.094Z,50.40
2023-03-03T14:28:21.492Z,56.78
2023-03-03T14:31:27.023Z,56.40
2023-03-03T14:34:37.034Z,49.55
2023-03-03T14:37:46.261Z,55.10
2023-03-03T14:40:47.968Z,66.15
2023-03-03T14:44:05.991Z,52.53
2023-03-03T14:47:10.476Z,51.90
2023-03-03T14:50:29.820Z,55.00
2023-03-03T14:53:38.663Z,52.65
2023-03-03T14:56:40.741Z,48.80
2023-03-03T15:00:10.691Z,47.15
2023-03-03T15:03:21.825Z,47.83
2023-03-03T15:06:36.848Z,42.03
2023-03-03T15:09:43.183Z,46.05
2023-03-03T15:12:45.003Z,44.95
2023-03-03T15:15:52.633Z,46.75
2023-03-03T15:19:30.849Z,41.72
2023-03-03T15:22:51.621Z,45.53
2023-03-03T15:26:00.802Z,44.88
2023-03-03T15:29:12.682Z,44.95
2023-03-03T15:32:19.343Z,44.40
2023-03-03T15:35:26.615Z,43.63
2023-03-03T15:38:35.580Z,36.40
2023-03-03T15:42:02.366Z,37.88
2023-03-03T15:45:37.610Z,39.00
2023-03-03T15:48:52.121Z,55.63
2023-03-03T15:52:03.683Z,40.47
2023-03-03T15:55:11.677Z,39.83
2023-03-03T15:58:33.951Z,38.83
2023-03-03T16:01:40.053Z,37.10
2023-03-03T16:04:49.858Z,44.92
2023-03-03T16:08:13.871Z,41.05
2023-03-03T16:11:21.914Z,40.33
2023-03-03T16:14:51.676Z,42.35
2023-03-03T16:18:11.879Z,36.88
2023-03-03T16:21:47.969Z,39.22
2023-03-03T16:25:24.942Z,41.45
2023-03-03T16:28:42.927Z,53.85
2023-03-03T16:31:50.005Z,56.20
2023-03-03T16:35:14.540Z,52.30
2023-03-03T16:38:27.392Z,39.05
2023-03-03T16:41:42.950Z,50.92
2023-03-03T16:45:09.409Z,38.88
2023-03-03T16:48:13.809Z,39.55
2023-03-03T16:51:30.710Z,35.97
2023-03-03T16:54:54.353Z,39.53
2023-03-03T16:58:12.851Z,46.70
2023-03-03T17:01:35.676Z,41.70
2023-03-03T17:08:01.720Z,39.03
2023-03-03T17:11:21.872Z,41.60
2023-03-03T17:14:53.081Z,42.58
2023-03-03T17:18:27.477Z,58.40
2023-03-03T17:22:06.687Z,62.28
2023-03-03T17:25:21.416Z,55.63
2023-03-03T17:28:30.488Z,50.53
2023-03-03T17:32:00.018Z,50.33
2023-03-03T17:35:20.451Z,52.80
2023-03-03T17:39:00.053Z,46.75
2023-03-03T17:42:10.620Z,37.53
2023-03-03T17:45:15.976Z,39.55
2023-03-03T17:48:23.550Z,36.90
2023-03-03T17:51:32.784Z,43.75
2023-03-03T17:54:37.969Z,48.70
2023-03-03T17:58:02.260Z,40.13
2023-03-03T18:01:07.136Z,42.35
2023-03-03T18:04:11.683Z,38.22
2023-03-03T18:07:22.199Z,38.58
2023-03-03T18:10:43.049Z,36.97
2023-03-03T18:14:07.625Z,30.60
2023-03-03T18:17:45.595Z,38.58
2023-03-03T18:21:02.134Z,37.17
2023-03-03T18:24:25.476Z,39.75
2023-03-03T18:27:34.870Z,37.78
2023-03-03T18:30:58.471Z,38.92
2023-03-03T18:34:08.609Z,28.83
2023-03-03T18:37:37.020Z,33.05
2023-03-03T18:40:48.250Z,34.92
2023-03-03T18:43:52.669Z,34.40
2023-03-03T18:46:54.542Z,34.75
2023-03-03T18:50:15.739Z,38.33
2023-03-03T18:53:29.939Z,43.50
2023-03-03T18:56:50.689Z,73.53
2023-03-03T18:59:58.332Z,44.97
2023-03-03T19:02:59.938Z,39.40
2023-03-03T19:06:02.560Z,34.88
2023-03-03T19:09:05.740Z,43.17
2023-03-03T19:12:11.064Z,43.67
2023-03-03T19:15:35.986Z,43.20
2023-03-03T19:19:04.059Z,50.80
2023-03-03T19:22:24.587Z,41.92
2023-03-03T19:25:27.460Z,40.53
2023-03-03T19:28:41.250Z,40.85
2023-03-03T19:32:04.620Z,33.72
2023-03-03T19:35:27.666Z,35.88
2023-03-03T19:42:01.648Z,35.42
2023-03-03T19:45:06.220Z,43.50
2023-03-03T19:48:33.738Z,41.70
2023-03-03T19:51:41.162Z,36.30
2023-03-03T19:54:51.620Z,37.10
2023-03-03T19:58:18.378Z,38.08
2023-03-03T20:01:51.971Z,36.17
2023-03-03T20:05:17.890Z,41.83
2023-03-03T20:08:34.406Z,41.30
2023-03-03T20:11:48.033Z,46.08
2023-03-03T20:15:06.358Z,39.22
2023-03-03T20:18:32.678Z,42.17
2023-03-03T20:21:49.221Z,38.08
2023-03-03T20:25:11.382Z,36.83
2023-03-03T20:28:32.958Z,39.57
2023-03-03T20:31:43.786Z,34.80
2023-03-03T20:35:04.039Z,35.90
2023-03-03T20:38:17.983Z,36.28
2023-03-03T20:41:42.840Z,41.83
2023-03-03T20:44:59.382Z,36.25
2023-03-03T20:48:16.556Z,31.88
2023-03-03T20:51:31.889Z,42.05
2023-03-03T20:54:37.041Z,36.53
2023-03-03T20:57:59.766Z,36.75
2023-03-03T21:01:07.355Z,41.72
2023-03-03T21:04:38.567Z,37.65
2023-03-03T21:07:56.524Z,40.65
2023-03-03T21:10:58.585Z,48.67
2023-03-03T21:14:00.962Z,49.22
2023-03-03T21:17:23.938Z,38.40
2023-03-03T21:20:32.736Z,42.70
2023-03-03T21:23:34.272Z,40.65
2023-03-03T21:26:58.011Z,41.63
2023-03-03T21:30:12.377Z,39.55
2023-03-03T21:33:43.824Z,37.08
2023-03-03T21:36:47.120Z,33.35
2023-03-03T21:39:50.719Z,33.28
2023-03-03T21:42:54.233Z,37.25
2023-03-03T21:45:55.788Z,32.20
2023-03-03T21:48:57.297Z,45.05
2023-03-03T21:51:58.875Z,35.65
2023-03-03T21:55:00.386Z,39.50
2023-03-03T21:58:01.955Z,36.25
2023-03-03T22:01:07.143Z,37.10
2023-03-03T22:04:08.627Z,36.75
2023-03-03T22:07:12.436Z,36.25
2023-03-03T22:10:13.952Z,35.38
2023-03-03T22:13:16.305Z,38.78
2023-03-03T22:16:17.916Z,35.90
2023-03-03T22:19:19.446Z,38.20
2023-03-03T22:22:20.911Z,36.35
2023-03-03T22:25:22.469Z,30.55
2023-03-03T22:28:24.266Z,55.55
2023-03-03T22:31:25.802Z,50.83
2023-03-03T22:34:27.312Z,46.90
2023-03-03T22:37:28.812Z,48.42
2023-03-03T22:40:30.429Z,49.80
2023-03-03T22:43:31.941Z,48.22
2023-03-03T22:46:33.587Z,36.70
2023-03-03T22:49:35.148Z,37.45
2023-03-03T22:52:36.671Z,35.65
2023-03-03T22:55:38.192Z,39.88
2023-03-03T22:58:39.687Z,42.92
2023-03-03T23:01:41.171Z,42.00
2023-03-03T23:04:42.697Z,35.03
2023-03-03T23:07:44.191Z,30.55
2023-03-03T23:10:46.000Z,35.28
2023-03-03T23:13:47.492Z,40.40
2023-03-03T23:16:49.102Z,45.90
2023-03-03T23:19:50.649Z,40.00
2023-03-03T23:22:52.296Z,31.25
2023-03-03T23:25:53.890Z,35.35
2023-03-03T23:28:55.396Z,36.13
2023-03-03T23:31:56.932Z,35.22
2023-03-03T23:34:58.449Z,34.88
2023-03-03T23:38:00.031Z,41.75
2023-03-03T23:41:01.563Z,40.85
2023-03-03T23:44:03.032Z,34.83
2023-03-03T23:47:05.158Z,34.22
2023-03-03T23:50:07.120Z,36.78
2023-03-03T23:53:08.682Z,33.33
2023-03-03T23:56:10.205Z,43.40
2023-03-03T23:59:11.660Z,38.75
